createdAt,value
2022-07-25T00:01:11.834Z,100939.69
2022-07-25T00:03:39.090Z,100933.22
2022-07-25T00:06:05.941Z,100922.59
2022-07-25T00:08:32.376Z,100916.03
2022-07-25T00:10:58.839Z,100916.59
2022-07-25T00:13:25.255Z,100921.47
2022-07-25T00:15:51.711Z,100907.63
2022-07-25T00:18:18.165Z,100911.72
2022-07-25T00:20:44.576Z,100895.94
2022-07-25T00:23:11.111Z,100902.22
2022-07-25T00:25:37.672Z,100892.69
2022-07-25T00:28:04.534Z,100884.81
2022-07-25T00:30:31.049Z,100885.88
2022-07-25T00:32:57.488Z,100883.97
2022-07-25T00:35:25.085Z,100881.25
2022-07-25T00:37:51.502Z,100873.63
2022-07-25T00:40:18.007Z,100875.00
2022-07-25T00:42:44.397Z,100875.28
2022-07-25T00:45:11.105Z,100877.72
2022-07-25T00:47:37.681Z,100856.25
2022-07-25T00:50:04.971Z,100860.34
2022-07-25T00:52:31.380Z,100858.97
2022-07-25T00:54:57.908Z,100858.97
2022-07-25T00:57:24.747Z,100851.34
2022-07-25T00:59:51.308Z,100855.16
2022-07-25T01:02:17.829Z,100845.38
2022-07-25T01:04:44.322Z,100836.94
2022-07-25T01:07:10.807Z,100835.03
2022-07-25T01:09:37.372Z,100836.94
2022-07-25T01:12:04.309Z,100837.22
2022-07-25T01:14:31.956Z,100837.22
2022-07-25T01:16:58.387Z,100835.31
2022-07-25T01:19:24.829Z,100834.75
2022-07-25T01:21:51.278Z,100831.50
2022-07-25T01:24:17.807Z,100829.03
2022-07-25T01:26:44.248Z,100826.59
2022-07-25T01:29:10.655Z,100820.34
2022-07-25T01:31:37.210Z,100816.81
2022-07-25T01:34:04.302Z,100815.72
2022-07-25T01:36:30.970Z,100817.88
2022-07-25T01:38:58.379Z,100808.91
2022-07-25T01:41:24.849Z,100805.38
2022-07-25T01:43:51.234Z,100798.28
2022-07-25T01:46:17.893Z,100787.41
2022-07-25T01:48:44.559Z,100790.41
2022-07-25T01:51:11.184Z,100789.59
2022-07-25T01:53:37.687Z,100784.41
2022-07-25T01:56:06.553Z,100789.34
2022-07-25T01:58:35.562Z,100789.34
2022-07-25T02:01:02.244Z,100789.59
2022-07-25T02:03:31.351Z,100787.97
2022-07-25T02:06:06.122Z,100774.09
2022-07-25T02:08:32.851Z,100767.84
2022-07-25T02:11:00.276Z,100762.66
2022-07-25T02:13:27.549Z,100757.78
2022-07-25T02:15:54.072Z,100760.22
2022-07-25T02:18:20.528Z,100763.50
2022-07-25T02:20:47.379Z,100761.31
2022-07-25T02:23:13.791Z,100757.78
2022-07-25T02:25:41.408Z,100758.84
2022-07-25T02:28:07.869Z,100754.47
2022-07-25T02:30:37.619Z,100752.59
2022-07-25T02:33:04.182Z,100752.59
2022-07-25T02:35:30.619Z,100755.31
2022-07-25T02:37:57.458Z,100750.97
2022-07-25T02:40:23.878Z,100751.75
2022-07-25T02:42:51.507Z,100750.91
2022-07-25T02:45:18.034Z,100757.16
2022-07-25T02:47:44.695Z,100750.38
2022-07-25T02:50:12.080Z,100749.78
2022-07-25T02:52:41.270Z,100751.41
2022-07-25T02:55:09.867Z,100757.91
2022-07-25T02:57:36.628Z,100748.91
2022-07-25T03:00:06.349Z,100750.81
2022-07-25T03:02:33.022Z,100749.22
2022-07-25T03:05:00.519Z,100746.50
2022-07-25T03:07:26.922Z,100748.13
2022-07-25T03:09:53.299Z,100737.25
2022-07-25T03:12:19.711Z,100740.53
2022-07-25T03:14:46.258Z,100733.22
2022-07-25T03:17:12.758Z,100732.66
2022-07-25T03:19:39.354Z,100738.94
2022-07-25T03:22:05.770Z,100741.09
2022-07-25T03:24:32.288Z,100739.19
2022-07-25T03:26:58.677Z,100749.78
2022-07-25T03:29:25.131Z,100738.09
2022-07-25T03:31:51.546Z,100753.28
2022-07-25T03:34:17.982Z,100750.34
2022-07-25T03:36:44.402Z,100737.56
2022-07-25T03:39:10.950Z,100741.09
2022-07-25T03:41:37.436Z,100735.94
2022-07-25T03:44:04.437Z,100729.41
2022-07-25T03:46:31.211Z,100733.50
2022-07-25T03:48:57.870Z,100733.22
2022-07-25T03:51:24.552Z,100733.75
2022-07-25T03:54:03.401Z,100731.31
2022-07-25T03:56:43.575Z,100738.91
2022-07-25T03:59:13.074Z,100735.66
2022-07-25T04:01:39.750Z,100738.09
2022-07-25T04:04:06.855Z,100735.16
2022-07-25T04:06:33.641Z,100732.16
2022-07-25T04:09:00.208Z,100726.50
2022-07-25T04:11:28.110Z,100724.28
2022-07-25T04:13:55.080Z,100714.53
2022-07-25T04:16:22.369Z,100692.50
2022-07-25T04:18:50.503Z,100716.97
2022-07-25T04:21:18.035Z,100715.88
2022-07-25T04:23:44.412Z,100718.06
2022-07-25T04:26:10.875Z,100718.34
2022-07-25T04:28:37.623Z,100722.41
2022-07-25T04:31:04.014Z,100713.44
2022-07-25T04:33:30.527Z,100715.88
2022-07-25T04:35:57.091Z,100712.63
2022-07-25T04:38:23.569Z,100720.50
2022-07-25T04:40:50.246Z,100715.34
2022-07-25T04:43:16.661Z,100712.34
2022-07-25T04:45:43.188Z,100714.25
2022-07-25T04:48:09.639Z,100705.28
2022-07-25T04:50:36.221Z,100709.38
2022-07-25T04:53:02.725Z,100710.72
2022-07-25T04:55:29.182Z,100709.13
2022-07-25T04:57:55.682Z,100711.28
2022-07-25T05:00:23.850Z,100704.75
2022-07-25T05:02:51.624Z,100702.56
2022-07-25T05:05:21.751Z,100703.09
2022-07-25T05:07:49.252Z,100703.34
2022-07-25T05:10:15.723Z,100694.63
2022-07-25T05:12:42.114Z,100709.25
2022-07-25T05:15:09.198Z,100705.97
2022-07-25T05:17:35.705Z,100712.81
2022-07-25T05:20:02.138Z,100708.69
2022-07-25T05:22:29.193Z,100702.47
2022-07-25T05:24:56.239Z,100697.84
2022-07-25T05:27:23.797Z,100710.09
2022-07-25T05:29:53.239Z,100723.44
2022-07-25T05:32:19.707Z,100721.50
2022-07-25T05:34:46.210Z,100714.13
2022-07-25T05:37:13.778Z,100725.59
2022-07-25T05:39:40.448Z,100719.09
2022-07-25T05:42:07.874Z,100724.53
2022-07-25T05:44:34.386Z,100725.63
2022-07-25T05:47:01.147Z,100728.03
2022-07-25T05:49:28.020Z,100731.03
2022-07-25T05:51:54.511Z,100719.34
2022-07-25T05:54:20.969Z,100722.06
2022-07-25T05:56:47.596Z,100724.28
2022-07-25T05:59:14.131Z,100731.94
2022-07-25T06:01:40.643Z,100722.38
2022-07-25T06:04:07.593Z,100727.53
2022-07-25T06:06:34.259Z,100716.94
2022-07-25T06:09:00.670Z,100710.69
2022-07-25T06:11:30.653Z,100718.28
2022-07-25T06:13:57.820Z,100731.09
2022-07-25T06:16:24.537Z,100726.75
2022-07-25T06:18:51.077Z,100720.22
2022-07-25T06:21:17.481Z,100713.16
2022-07-25T06:23:43.925Z,100716.41
2022-07-25T06:26:10.986Z,100722.97
2022-07-25T06:28:38.342Z,100733.03
2022-07-25T06:31:04.902Z,100714.25
2022-07-25T06:33:31.419Z,100723.78
2022-07-25T06:35:57.808Z,100738.44
2022-07-25T06:38:24.297Z,100730.56
2022-07-25T06:40:50.759Z,100715.88
2022-07-25T06:43:17.186Z,100705.53
2022-07-25T06:45:47.377Z,100720.22
2022-07-25T06:48:17.830Z,100725.94
2022-07-25T06:50:44.961Z,100719.13
2022-07-25T06:53:11.542Z,100731.63
2022-07-25T06:55:38.327Z,100727.81
2022-07-25T06:58:05.279Z,100728.91
2022-07-25T07:00:31.839Z,100717.75
2022-07-25T07:03:01.626Z,100722.13
2022-07-25T07:05:30.631Z,100728.66
2022-07-25T07:07:57.855Z,100745.25
2022-07-25T07:10:25.123Z,100744.69
2022-07-25T07:13:02.067Z,100743.91
2022-07-25T07:15:28.568Z,100755.06
2022-07-25T07:17:55.041Z,100749.31
2022-07-25T07:20:21.553Z,100739.25
2022-07-25T07:22:49.021Z,100740.63
2022-07-25T07:25:18.546Z,100742.25
2022-07-25T07:27:46.180Z,100738.69
2022-07-25T07:30:14.981Z,100739.78
2022-07-25T07:32:42.427Z,100735.13
2022-07-25T07:35:09.763Z,100733.50
2022-07-25T07:37:41.370Z,100736.50
2022-07-25T07:40:09.881Z,100744.38
2022-07-25T07:42:46.996Z,100738.16
2022-07-25T07:45:20.338Z,100754.47
2022-07-25T07:47:49.030Z,100751.78
2022-07-25T07:50:17.646Z,100741.38
2022-07-25T07:52:45.168Z,100725.31
2022-07-25T07:55:31.275Z,100727.75
2022-07-25T07:57:59.501Z,100731.00
2022-07-25T08:00:35.838Z,100735.38
2022-07-25T08:03:03.135Z,100728.22
2022-07-25T08:05:33.125Z,100725.41
2022-07-25T08:08:00.755Z,100724.78
2022-07-25T08:10:30.999Z,100720.88
2022-07-25T08:12:59.184Z,100721.09
2022-07-25T08:15:26.168Z,100709.31
2022-07-25T08:17:53.089Z,100729.78
2022-07-25T08:20:38.486Z,100736.31
2022-07-25T08:23:06.255Z,100732.72
2022-07-25T08:25:32.843Z,100747.97
2022-07-25T08:27:59.387Z,100748.56
2022-07-25T08:30:25.982Z,100743.44
2022-07-25T08:32:54.872Z,100750.84
2022-07-25T08:35:22.430Z,100751.69
2022-07-25T08:37:49.275Z,100753.94
2022-07-25T08:40:19.419Z,100759.16
2022-07-25T08:42:46.364Z,100758.88
2022-07-25T08:45:16.203Z,100758.63
2022-07-25T08:47:42.685Z,100760.56
2022-07-25T08:50:12.516Z,100756.22
2022-07-25T08:52:39.682Z,100754.56
2022-07-25T08:55:09.591Z,100751.00
2022-07-25T08:57:38.065Z,100758.84
2022-07-25T09:00:06.279Z,100760.75
2022-07-25T09:02:32.959Z,100754.25
2022-07-25T09:04:59.856Z,100748.84
2022-07-25T09:07:40.276Z,100754.53
2022-07-25T09:10:14.651Z,100755.31
2022-07-25T09:12:42.578Z,100756.84
2022-07-25T09:15:09.538Z,100754.47
2022-07-25T09:17:38.030Z,100750.66
2022-07-25T09:20:08.777Z,100765.97
2022-07-25T09:22:44.336Z,100779.09
2022-07-25T09:25:25.925Z,100773.63
2022-07-25T09:27:52.779Z,100778.81
2022-07-25T09:30:19.867Z,100782.41
2022-07-25T09:32:46.443Z,100791.31
2022-07-25T09:35:13.187Z,100797.78
2022-07-25T09:37:39.793Z,100782.69
2022-07-25T09:40:15.343Z,100768.31
2022-07-25T09:42:42.929Z,100768.97
2022-07-25T09:45:18.207Z,100787.09
2022-07-25T09:47:56.649Z,100788.91
2022-07-25T09:50:25.295Z,100766.09
2022-07-25T09:52:53.447Z,100778.63
2022-07-25T09:55:21.268Z,100771.31
2022-07-25T09:57:52.609Z,100781.97
2022-07-25T10:00:24.064Z,100795.06
2022-07-25T10:03:08.893Z,100809.38
2022-07-25T10:05:51.609Z,100802.84
2022-07-25T10:08:19.908Z,100807.78
2022-07-25T10:10:46.541Z,100804.59
2022-07-25T10:13:18.124Z,100812.50
2022-07-25T10:15:50.643Z,100802.94
2022-07-25T10:18:21.589Z,100820.16
2022-07-25T10:20:51.316Z,100819.03
2022-07-25T10:23:25.692Z,100818.22
2022-07-25T10:26:03.750Z,100815.97
2022-07-25T10:28:43.938Z,100816.44
2022-07-25T10:31:32.304Z,100815.09
2022-07-25T10:34:01.696Z,100806.94
2022-07-25T10:36:42.242Z,100819.72
2022-07-25T10:39:11.613Z,100826.19
2022-07-25T10:41:43.438Z,100823.63
2022-07-25T10:44:15.178Z,100833.38
2022-07-25T10:46:44.770Z,100835.28
2022-07-25T10:49:32.229Z,100832.56
2022-07-25T10:52:00.889Z,100836.47
2022-07-25T10:54:33.730Z,100833.44
2022-07-25T10:57:00.538Z,100835.53
2022-07-25T10:59:31.633Z,100835.47
2022-07-25T11:01:59.160Z,100837.41
2022-07-25T11:04:26.039Z,100830.06
2022-07-25T11:06:52.456Z,100837.13
2022-07-25T11:09:28.914Z,100832.16
2022-07-25T11:11:58.449Z,100839.50
2022-07-25T11:14:36.395Z,100847.75
2022-07-25T11:17:15.204Z,100833.19
2022-07-25T11:19:43.641Z,100852.59
2022-07-25T11:22:12.289Z,100849.41
2022-07-25T11:24:44.205Z,100851.50
2022-07-25T11:27:21.662Z,100842.13
2022-07-25T11:29:48.251Z,100853.06
2022-07-25T11:32:15.138Z,100855.00
2022-07-25T11:34:44.465Z,100857.72
2022-07-25T11:37:12.535Z,100847.13
2022-07-25T11:39:44.709Z,100844.66
2022-07-25T11:42:19.393Z,100855.47
2022-07-25T11:44:51.204Z,100853.53
2022-07-25T11:47:32.676Z,100853.47
2022-07-25T11:50:04.771Z,100858.75
2022-07-25T11:52:36.619Z,100843.63
2022-07-25T11:55:12.835Z,100849.50
2022-07-25T11:57:44.651Z,100846.50
2022-07-25T12:00:17.593Z,100859.72
2022-07-25T12:02:45.139Z,100857.06
2022-07-25T12:05:14.799Z,100852.47
2022-07-25T12:07:49.945Z,100852.25
2022-07-25T12:10:37.813Z,100864.03
2022-07-25T12:13:06.254Z,100870.09
2022-07-25T12:15:38.870Z,100862.66
2022-07-25T12:18:06.361Z,100863.41
2022-07-25T12:20:35.311Z,100851.50
2022-07-25T12:23:06.512Z,100853.53
2022-07-25T12:25:33.467Z,100855.41
2022-07-25T12:28:00.686Z,100854.53
2022-07-25T12:30:28.581Z,100862.47
2022-07-25T12:32:56.294Z,100863.84
2022-07-25T12:35:23.199Z,100863.06
2022-07-25T12:37:49.910Z,100866.78
2022-07-25T12:40:17.793Z,100871.16
2022-07-25T12:42:45.369Z,100863.59
2022-07-25T12:45:12.793Z,100871.50
2022-07-25T12:47:39.642Z,100872.31
2022-07-25T12:50:06.695Z,100873.31
2022-07-25T12:52:33.622Z,100882.81
2022-07-25T12:55:00.156Z,100867.75
2022-07-25T12:57:27.003Z,100884.97
2022-07-25T12:59:54.554Z,100878.59
2022-07-25T13:02:21.056Z,100876.56
2022-07-25T13:04:48.954Z,100873.81
2022-07-25T13:07:16.154Z,100872.38
2022-07-25T13:09:42.696Z,100864.13
2022-07-25T13:12:10.407Z,100854.59
2022-07-25T13:14:39.928Z,100868.25
2022-07-25T13:17:06.456Z,100865.47
2022-07-25T13:19:33.044Z,100863.53
2022-07-25T13:21:59.493Z,100872.47
2022-07-25T13:24:25.927Z,100875.75
2022-07-25T13:26:52.419Z,100868.56
2022-07-25T13:29:19.293Z,100876.78
2022-07-25T13:31:47.381Z,100867.06
2022-07-25T13:34:14.301Z,100873.06
2022-07-25T13:36:40.698Z,100869.28
2022-07-25T13:39:07.583Z,100855.03
2022-07-25T13:41:34.405Z,100865.66
2022-07-25T13:44:01.131Z,100866.72
2022-07-25T13:46:28.818Z,100865.69
2022-07-25T13:48:55.694Z,100874.38
2022-07-25T13:51:22.242Z,100884.19
2022-07-25T13:53:48.966Z,100893.56
2022-07-25T13:56:15.618Z,100894.72
2022-07-25T13:58:43.112Z,100905.13
2022-07-25T14:01:11.576Z,100891.81
2022-07-25T14:03:38.737Z,100907.31
2022-07-25T14:06:08.897Z,100911.28
2022-07-25T14:08:35.307Z,100904.75
2022-07-25T14:11:01.895Z,100905.56
2022-07-25T14:13:32.950Z,100905.72
2022-07-25T14:15:59.559Z,100903.94
2022-07-25T14:18:26.099Z,100897.38
2022-07-25T14:20:52.512Z,100898.94
2022-07-25T14:23:19.738Z,100888.59
2022-07-25T14:25:46.342Z,100903.88
2022-07-25T14:28:12.823Z,100892.94
2022-07-25T14:30:39.247Z,100907.78
2022-07-25T14:33:05.674Z,100912.44
2022-07-25T14:35:32.897Z,100919.81
2022-07-25T14:37:59.611Z,100911.63
2022-07-25T14:40:26.166Z,100911.97
2022-07-25T14:42:52.633Z,100911.22
2022-07-25T14:45:19.309Z,100912.78
2022-07-25T14:47:45.933Z,100919.88
2022-07-25T14:50:12.399Z,100916.94
2022-07-25T14:52:39.352Z,100922.25
2022-07-25T14:55:06.450Z,100924.53
2022-07-25T14:57:33.317Z,100912.47
2022-07-25T15:00:01.937Z,100927.81
2022-07-25T15:02:28.481Z,100931.81
2022-07-25T15:04:55.202Z,100926.59
2022-07-25T15:07:21.701Z,100936.25
2022-07-25T15:09:48.110Z,100935.22
2022-07-25T15:12:16.682Z,100928.38
2022-07-25T15:14:43.885Z,100937.09
2022-07-25T15:17:10.315Z,100935.44
2022-07-25T15:19:37.092Z,100931.91
2022-07-25T15:22:03.571Z,100921.41
2022-07-25T15:24:36.304Z,100937.25
2022-07-25T15:27:10.795Z,100938.63
2022-07-25T15:29:37.263Z,100935.94
2022-07-25T15:32:05.601Z,100932.13
2022-07-25T15:34:33.258Z,100939.22
2022-07-25T15:36:59.697Z,100936.44
2022-07-25T15:39:26.116Z,100938.78
2022-07-25T15:41:52.638Z,100947.06
2022-07-25T15:44:19.079Z,100937.78
2022-07-25T15:46:46.266Z,100946.00
2022-07-25T15:49:15.019Z,100940.31
2022-07-25T15:51:41.557Z,100948.09
2022-07-25T15:54:08.320Z,100938.34
2022-07-25T15:56:34.748Z,100944.75
2022-07-25T15:59:01.347Z,100940.13
2022-07-25T16:01:27.909Z,100945.59
2022-07-25T16:03:59.712Z,100957.38
2022-07-25T16:06:27.671Z,100952.19
2022-07-25T16:08:54.164Z,100948.91
2022-07-25T16:11:20.662Z,100955.72
2022-07-25T16:13:47.340Z,100959.28
2022-07-25T16:16:13.904Z,100959.88
2022-07-25T16:18:40.470Z,100959.84
2022-07-25T16:21:06.957Z,100965.06
2022-07-25T16:23:38.374Z,100962.59
2022-07-25T16:26:06.326Z,100957.19
2022-07-25T16:28:33.273Z,100971.41
2022-07-25T16:30:59.726Z,100960.56
2022-07-25T16:33:26.147Z,100961.69
2022-07-25T16:35:52.864Z,100964.72
2022-07-25T16:38:19.460Z,100967.94
2022-07-25T16:40:46.074Z,100960.09
2022-07-25T16:43:12.704Z,100961.47
2022-07-25T16:45:39.198Z,100968.81
2022-07-25T16:48:06.001Z,100970.19
2022-07-25T16:50:32.447Z,100966.38
2022-07-25T16:52:58.932Z,100965.03
2022-07-25T16:55:25.410Z,100974.81
2022-07-25T16:57:51.970Z,100980.81
2022-07-25T17:00:19.177Z,100978.41
2022-07-25T17:02:46.652Z,100974.84
2022-07-25T17:05:13.375Z,100983.88
2022-07-25T17:07:40.055Z,100979.47
2022-07-25T17:10:07.093Z,100976.47
2022-07-25T17:12:33.831Z,100970.75
2022-07-25T17:15:00.507Z,100980.88
2022-07-25T17:17:27.026Z,100982.75
2022-07-25T17:19:58.082Z,100972.38
2022-07-25T17:22:26.646Z,100990.66
2022-07-25T17:24:53.063Z,100989.59
2022-07-25T17:27:19.594Z,100981.13
2022-07-25T17:29:46.100Z,100987.13
2022-07-25T17:32:12.626Z,100978.13
2022-07-25T17:34:39.109Z,100981.16
2022-07-25T17:37:06.834Z,100982.81
2022-07-25T17:39:34.478Z,100987.72
2022-07-25T17:42:02.116Z,100989.34
2022-07-25T17:44:28.583Z,100986.06
2022-07-25T17:46:55.544Z,100994.00
2022-07-25T17:49:22.465Z,101000.00
2022-07-25T17:51:49.918Z,100998.91
2022-07-25T17:54:16.656Z,100999.69
2022-07-25T17:56:44.333Z,101000.75
2022-07-25T17:59:11.082Z,100998.84
2022-07-25T18:01:37.673Z,100989.34
2022-07-25T18:04:04.536Z,100992.34
2022-07-25T18:06:31.296Z,100991.53
2022-07-25T18:08:57.839Z,100990.16
2022-07-25T18:11:24.481Z,100998.34
2022-07-25T18:13:50.917Z,101007.63
2022-07-25T18:16:17.520Z,101009.25
2022-07-25T18:18:44.083Z,101001.91
2022-07-25T18:21:10.570Z,101004.63
2022-07-25T18:23:36.959Z,101007.06
2022-07-25T18:26:03.772Z,101006.81
2022-07-25T18:28:30.244Z,101012.25
2022-07-25T18:30:56.724Z,101021.50
2022-07-25T18:33:28.702Z,101021.81
2022-07-25T18:35:55.136Z,101014.69
2022-07-25T18:38:21.569Z,101020.69
2022-07-25T18:40:49.611Z,101013.09
2022-07-25T18:43:20.815Z,101014.16
2022-07-25T18:45:47.960Z,101014.69
2022-07-25T18:48:15.292Z,101013.63
2022-07-25T18:50:41.755Z,101020.97
2022-07-25T18:53:09.627Z,101017.41
2022-07-25T18:55:36.141Z,101009.25
2022-07-25T18:58:02.753Z,101017.94
2022-07-25T19:00:29.247Z,101021.47
2022-07-25T19:02:55.731Z,101021.75
2022-07-25T19:05:22.291Z,101026.69
2022-07-25T19:07:48.863Z,101017.09
2022-07-25T19:10:15.445Z,101033.72
2022-07-25T19:12:41.941Z,101032.59
2022-07-25T19:15:09.091Z,101037.50
2022-07-25T19:17:37.686Z,101030.91
2022-07-25T19:20:04.918Z,101040.97
2022-07-25T19:22:31.401Z,101039.91
2022-07-25T19:24:57.795Z,101047.81
2022-07-25T19:27:25.818Z,101046.72
2022-07-25T19:29:52.332Z,101059.16
2022-07-25T19:32:18.939Z,101047.19
2022-07-25T19:34:45.483Z,101049.44
2022-07-25T19:37:11.875Z,101049.97
2022-07-25T19:39:38.600Z,101057.31
2022-07-25T19:42:08.447Z,101057.00
2022-07-25T19:44:35.127Z,101064.38
2022-07-25T19:47:01.651Z,101063.25
2022-07-25T19:49:28.245Z,101074.66
2022-07-25T19:51:54.690Z,101069.41
2022-07-25T19:54:21.105Z,101077.19
2022-07-25T19:56:47.533Z,101080.75
2022-07-25T19:59:13.938Z,101078.06
2022-07-25T20:01:40.528Z,101089.94
2022-07-25T20:04:09.242Z,101096.72
2022-07-25T20:06:36.087Z,101094.25
2022-07-25T20:09:03.090Z,101090.41
2022-07-25T20:11:29.506Z,101086.84
2022-07-25T20:13:55.969Z,101099.00
2022-07-25T20:16:22.652Z,101087.63
2022-07-25T20:18:49.101Z,101090.94
2022-07-25T20:21:17.942Z,101090.47
2022-07-25T20:23:45.466Z,101095.06
2022-07-25T20:26:12.702Z,101102.03
2022-07-25T20:28:39.383Z,101091.03
2022-07-25T20:31:06.143Z,101095.34
2022-07-25T20:33:33.101Z,101092.53
2022-07-25T20:35:59.885Z,101097.91
2022-07-25T20:38:28.489Z,101090.91
2022-07-25T20:40:55.865Z,101090.78
2022-07-25T20:43:22.456Z,101094.84
2022-07-25T20:45:48.939Z,101093.69
2022-07-25T20:48:15.772Z,101096.34
2022-07-25T20:50:42.783Z,101092.13
2022-07-25T20:53:09.836Z,101103.34
2022-07-25T20:55:36.826Z,101104.84
2022-07-25T20:58:04.494Z,101100.47
2022-07-25T21:00:31.347Z,101102.06
2022-07-25T21:02:59.198Z,101107.13
2022-07-25T21:05:26.245Z,101111.50
2022-07-25T21:07:52.959Z,101117.44
2022-07-25T21:10:20.595Z,101113.94
2022-07-25T21:12:47.168Z,101110.97
2022-07-25T21:15:14.519Z,101111.28
2022-07-25T21:17:44.283Z,101112.13
2022-07-25T21:20:12.331Z,101124.66
2022-07-25T21:22:39.821Z,101128.63
2022-07-25T21:25:07.294Z,101125.69
2022-07-25T21:27:34.402Z,101118.28
2022-07-25T21:30:01.082Z,101119.72
2022-07-25T21:32:27.742Z,101123.75
2022-07-25T21:34:54.613Z,101119.81
2022-07-25T21:37:21.156Z,101123.09
2022-07-25T21:39:47.559Z,101128.47
2022-07-25T21:42:14.308Z,101123.84
2022-07-25T21:44:43.089Z,101127.13
2022-07-25T21:47:10.399Z,101127.03
2022-07-25T21:49:55.502Z,101137.53
2022-07-25T21:52:34.910Z,101138.31
2022-07-25T21:55:05.293Z,101132.06
2022-07-25T21:57:32.435Z,101138.63
2022-07-25T21:59:59.230Z,101130.25
2022-07-25T22:02:26.207Z,101134.59
2022-07-25T22:04:52.726Z,101135.41
2022-07-25T22:07:19.242Z,101134.81
2022-07-25T22:09:45.796Z,101142.19
2022-07-25T22:12:12.258Z,101131.53
2022-07-25T22:14:38.985Z,101132.28
2022-07-25T22:17:05.845Z,101137.44
2022-07-25T22:19:33.114Z,101140.63
2022-07-25T22:21:59.580Z,101137.94
2022-07-25T22:24:26.182Z,101140.38
2022-07-25T22:26:52.878Z,101140.13
2022-07-25T22:29:19.468Z,101139.81
2022-07-25T22:31:45.937Z,101145.59
2022-07-25T22:34:12.495Z,101148.28
2022-07-25T22:36:38.946Z,101146.03
2022-07-25T22:39:05.656Z,101144.09
2022-07-25T22:41:32.683Z,101152.72
2022-07-25T22:44:00.060Z,101145.97
2022-07-25T22:46:28.379Z,101145.16
2022-07-25T22:48:55.659Z,101148.19
2022-07-25T22:51:22.317Z,101153.97
2022-07-25T22:53:49.070Z,101152.53
2022-07-25T22:56:16.805Z,101150.53
2022-07-25T22:58:43.361Z,101154.53
2022-07-25T23:01:10.897Z,101152.38
2022-07-25T23:03:37.723Z,101157.25
2022-07-25T23:06:04.346Z,101165.41
2022-07-25T23:08:30.790Z,101158.22
2022-07-25T23:10:57.360Z,101160.72
2022-07-25T23:13:23.954Z,101151.13
2022-07-25T23:15:51.469Z,101153.78
2022-07-25T23:18:18.645Z,101149.84
2022-07-25T23:20:45.045Z,101152.88
2022-07-25T23:23:11.860Z,101149.41
2022-07-25T23:25:38.628Z,101151.31
2022-07-25T23:28:05.275Z,101158.38
2022-07-25T23:30:36.578Z,101154.53
2022-07-25T23:33:06.444Z,101157.63
2022-07-25T23:35:32.842Z,101143.22
2022-07-25T23:37:59.271Z,101142.91
2022-07-25T23:40:26.936Z,101151.63
2022-07-25T23:42:54.390Z,101152.25
2022-07-25T23:45:21.850Z,101158.06
2022-07-25T23:47:51.352Z,101164.00
2022-07-25T23:50:18.636Z,101164.84
2022-07-25T23:52:45.075Z,101167.81
2022-07-25T23:55:11.474Z,101168.41
2022-07-25T23:57:37.947Z,101162.63
